Terminal Aerodrome Forecast
Issued by NWS

Home | Current Version | Previous Version | Text Only | Print | Product List | Glossary On
Versions: 1 2 3 4 5 6 7 8 9 10 11 12
355
FTUS42 TJSJ 231120
TAFJSJ
TAF
TJSJ 231120Z 2312/2412 10005KT P6SM VCSH SCT025 BKN050
     FM231450 05012KT P6SM SCT030 SCT070
     FM231830 07011KT P6SM VCSH SCT025 BKN050
     FM232300 09005KT P6SM SCT030 SCT070=

USA.gov is the U.S. government's official web portal to all federal, state and local government web resources and services.